createdAt,value
2023-03-07T00:01:00.416Z,3.57
2023-03-07T00:03:27.281Z,3.77
2023-03-07T00:06:05.205Z,4.20
2023-03-07T00:08:32.504Z,4.70
2023-03-07T00:11:03.274Z,6.03
2023-03-07T00:13:34.134Z,5.37
2023-03-07T00:16:06.402Z,4.47
2023-03-07T00:18:33.689Z,5.17
2023-03-07T00:21:02.897Z,4.67
2023-03-07T00:23:29.510Z,3.47
2023-03-07T00:26:01.187Z,4.23
2023-03-07T00:28:28.801Z,4.30
2023-03-07T00:31:00.573Z,4.07
2023-03-07T00:33:27.571Z,4.17
2023-03-07T00:35:59.302Z,4.53
2023-03-07T00:38:27.071Z,3.57
2023-03-07T00:41:01.641Z,3.03
2023-03-07T00:43:28.831Z,5.53
2023-03-07T00:45:56.656Z,3.23
2023-03-07T00:48:24.239Z,3.90
2023-03-07T00:50:51.600Z,4.03
2023-03-07T00:53:19.016Z,4.83
2023-03-07T00:55:54.779Z,3.60
2023-03-07T00:58:21.478Z,3.93
2023-03-07T01:00:48.152Z,3.67
2023-03-07T01:03:14.750Z,4.27
2023-03-07T01:05:41.890Z,4.10
2023-03-07T01:08:08.666Z,3.47
2023-03-07T01:10:35.376Z,5.43
2023-03-07T01:13:02.211Z,3.50
2023-03-07T01:15:28.837Z,4.57
2023-03-07T01:17:55.459Z,3.07
2023-03-07T01:20:22.217Z,4.87
2023-03-07T01:22:49.112Z,3.87
2023-03-07T01:25:15.914Z,2.90
2023-03-07T01:27:42.542Z,4.37
2023-03-07T01:30:09.997Z,2.93
2023-03-07T01:32:36.656Z,4.53
2023-03-07T01:35:03.596Z,4.13
2023-03-07T01:37:30.169Z,4.13
2023-03-07T01:39:56.947Z,3.80
2023-03-07T01:42:23.570Z,4.17
2023-03-07T01:45:07.503Z,4.40
2023-03-07T01:47:35.220Z,4.00
2023-03-07T01:50:06.603Z,3.37
2023-03-07T01:52:37.063Z,3.97
2023-03-07T01:55:11.544Z,3.87
2023-03-07T01:57:41.793Z,3.90
2023-03-07T02:00:13.771Z,4.03
2023-03-07T02:02:45.450Z,4.40
2023-03-07T02:05:23.730Z,3.67
2023-03-07T02:07:51.829Z,4.67
2023-03-07T02:10:21.664Z,3.67
2023-03-07T02:12:49.210Z,4.83
2023-03-07T02:15:16.077Z,3.50
2023-03-07T02:17:44.904Z,4.80
2023-03-07T02:20:30.262Z,2.90
2023-03-07T02:22:57.178Z,3.13
2023-03-07T02:25:44.097Z,3.83
2023-03-07T02:28:16.824Z,3.23
2023-03-07T02:31:06.145Z,3.80
2023-03-07T02:33:32.977Z,4.63
2023-03-07T02:36:08.370Z,4.60
2023-03-07T02:38:40.089Z,4.23
2023-03-07T02:41:11.071Z,4.60
2023-03-07T02:43:37.948Z,5.07
2023-03-07T02:46:05.046Z,4.40
2023-03-07T02:48:32.103Z,5.00
2023-03-07T02:50:58.762Z,3.80
2023-03-07T02:53:25.504Z,4.23
2023-03-07T02:55:52.109Z,4.73
2023-03-07T02:58:18.704Z,3.50
2023-03-07T03:00:45.420Z,4.90
2023-03-07T03:03:12.254Z,2.73
2023-03-07T03:05:38.979Z,2.73
2023-03-07T03:08:06.350Z,3.13
2023-03-07T03:10:33.073Z,3.67
2023-03-07T03:12:59.653Z,3.70
2023-03-07T03:15:26.506Z,4.13
2023-03-07T03:17:54.602Z,3.30
2023-03-07T03:20:21.208Z,4.20
2023-03-07T03:22:47.806Z,3.30
2023-03-07T03:25:15.311Z,4.97
2023-03-07T03:27:42.143Z,3.50
2023-03-07T03:30:11.201Z,3.87
2023-03-07T03:32:39.036Z,2.93
2023-03-07T03:35:07.055Z,2.90
2023-03-07T03:37:34.638Z,4.03
2023-03-07T03:40:01.261Z,2.97
2023-03-07T03:42:28.130Z,3.63
2023-03-07T03:44:54.920Z,3.97
2023-03-07T03:47:21.548Z,3.30
2023-03-07T03:49:48.239Z,3.07
2023-03-07T03:52:14.820Z,2.83
2023-03-07T03:54:41.379Z,4.03
2023-03-07T03:57:08.047Z,2.83
2023-03-07T03:59:34.626Z,2.77
2023-03-07T04:02:01.255Z,3.30
2023-03-07T04:04:27.899Z,3.33
2023-03-07T04:06:54.466Z,2.73
2023-03-07T04:09:20.997Z,3.37
2023-03-07T04:11:47.537Z,3.90
2023-03-07T04:14:14.309Z,2.83
2023-03-07T04:16:41.018Z,2.63
2023-03-07T04:19:10.227Z,3.23
2023-03-07T04:21:36.912Z,3.03
2023-03-07T04:24:03.830Z,2.60
2023-03-07T04:26:30.435Z,3.17
2023-03-07T04:28:57.060Z,3.47
2023-03-07T04:31:26.477Z,2.67
2023-03-07T04:33:54.942Z,3.10
2023-03-07T04:36:22.638Z,2.07
2023-03-07T04:38:50.080Z,2.77
2023-03-07T04:41:19.589Z,2.67
2023-03-07T04:43:46.532Z,3.37
2023-03-07T04:46:15.707Z,2.57
2023-03-07T04:48:42.499Z,2.97
2023-03-07T04:51:09.542Z,2.30
2023-03-07T04:53:36.227Z,2.13
2023-03-07T04:56:04.941Z,2.67
2023-03-07T04:58:32.320Z,2.20
2023-03-07T05:01:01.201Z,1.80
2023-03-07T05:03:28.828Z,2.67
2023-03-07T05:05:55.908Z,1.97
2023-03-07T05:08:22.973Z,2.73
2023-03-07T05:10:49.680Z,2.00
2023-03-07T05:13:16.340Z,1.70
2023-03-07T05:15:42.993Z,2.30
2023-03-07T05:18:09.627Z,2.23
2023-03-07T05:20:36.288Z,2.03
2023-03-07T05:23:02.888Z,2.83
2023-03-07T05:25:29.726Z,1.67
2023-03-07T05:27:56.253Z,2.50
2023-03-07T05:30:23.002Z,2.47
2023-03-07T05:32:51.501Z,2.30
2023-03-07T05:35:18.340Z,2.67
2023-03-07T05:37:45.054Z,2.50
2023-03-07T05:40:13.101Z,3.23
2023-03-07T05:42:39.962Z,3.13
2023-03-07T05:45:07.424Z,2.37
2023-03-07T05:47:34.036Z,2.40
2023-03-07T05:50:00.668Z,2.20
2023-03-07T05:52:29.152Z,2.40
2023-03-07T05:54:55.845Z,2.03
2023-03-07T05:57:23.451Z,2.37
2023-03-07T05:59:50.197Z,2.33
2023-03-07T06:02:17.239Z,2.60
2023-03-07T06:04:44.337Z,2.10
2023-03-07T06:07:10.974Z,2.20
2023-03-07T06:09:37.776Z,2.10
2023-03-07T06:12:04.738Z,2.70
2023-03-07T06:14:34.404Z,1.63
2023-03-07T06:17:02.594Z,2.30
2023-03-07T06:19:29.378Z,1.60
2023-03-07T06:21:55.884Z,1.70
2023-03-07T06:24:22.353Z,2.37
2023-03-07T06:26:49.062Z,1.83
2023-03-07T06:29:15.725Z,1.97
2023-03-07T06:31:42.468Z,1.97
2023-03-07T06:34:09.407Z,1.27
2023-03-07T06:36:36.110Z,2.37
2023-03-07T06:39:02.889Z,1.40
2023-03-07T06:41:29.833Z,1.20
2023-03-07T06:43:56.639Z,1.43
2023-03-07T06:46:23.275Z,1.47
2023-03-07T06:48:52.240Z,0.97
2023-03-07T06:51:19.066Z,0.97
2023-03-07T06:53:45.786Z,1.33
2023-03-07T06:56:12.329Z,1.30
2023-03-07T06:58:38.943Z,1.50
2023-03-07T07:01:05.812Z,1.80
2023-03-07T07:03:32.441Z,2.73
2023-03-07T07:05:59.138Z,1.77
2023-03-07T07:08:26.024Z,1.40
2023-03-07T07:10:52.752Z,1.73
2023-03-07T07:13:19.424Z,1.97
2023-03-07T07:15:46.275Z,1.97
2023-03-07T07:18:14.106Z,2.70
2023-03-07T07:20:40.710Z,1.53
2023-03-07T07:23:07.493Z,1.43
2023-03-07T07:25:34.294Z,2.10
2023-03-07T07:28:01.117Z,1.83
2023-03-07T07:30:30.727Z,2.10
2023-03-07T07:32:57.505Z,1.70
2023-03-07T07:35:24.440Z,1.53
2023-03-07T07:37:51.017Z,2.00
2023-03-07T07:40:17.862Z,1.93
2023-03-07T07:42:44.738Z,2.30
2023-03-07T07:45:11.685Z,1.97
2023-03-07T07:47:38.387Z,2.10
2023-03-07T07:50:06.003Z,2.53
2023-03-07T07:52:32.775Z,2.27
2023-03-07T07:54:59.986Z,2.63
2023-03-07T07:57:26.844Z,1.97
2023-03-07T07:59:53.772Z,2.73
2023-03-07T08:02:21.169Z,2.30
2023-03-07T08:04:47.867Z,1.90
2023-03-07T08:07:14.769Z,2.43
2023-03-07T08:09:41.563Z,2.27
2023-03-07T08:12:11.745Z,2.37
2023-03-07T08:14:39.325Z,2.47
2023-03-07T08:17:06.400Z,3.20
2023-03-07T08:19:33.398Z,3.13
2023-03-07T08:22:00.675Z,2.53
2023-03-07T08:24:39.988Z,3.03
2023-03-07T08:27:07.413Z,2.20
2023-03-07T08:29:35.399Z,2.40
2023-03-07T08:32:02.157Z,2.30
2023-03-07T08:34:28.934Z,2.27
2023-03-07T08:36:55.642Z,3.07
2023-03-07T08:39:22.215Z,2.33
2023-03-07T08:41:48.777Z,2.17
2023-03-07T08:44:15.335Z,2.83
2023-03-07T08:46:42.125Z,3.07
2023-03-07T08:49:08.837Z,3.07
2023-03-07T08:51:35.656Z,3.03
2023-03-07T08:54:02.252Z,2.50
2023-03-07T08:56:28.772Z,2.57
2023-03-07T08:58:55.434Z,2.43
2023-03-07T09:01:22.479Z,2.60
2023-03-07T09:03:49.403Z,2.87
2023-03-07T09:06:18.581Z,2.63
2023-03-07T09:08:47.652Z,2.70
2023-03-07T09:11:15.773Z,3.10
2023-03-07T09:13:51.446Z,2.80
2023-03-07T09:16:19.256Z,2.80
2023-03-07T09:18:45.701Z,2.43
2023-03-07T09:21:12.923Z,3.03
2023-03-07T09:23:39.451Z,3.17
2023-03-07T09:26:06.849Z,3.17
2023-03-07T09:28:33.427Z,2.60
2023-03-07T09:31:00.577Z,2.77
2023-03-07T09:33:27.523Z,2.70
2023-03-07T09:35:54.242Z,2.80
2023-03-07T09:38:20.899Z,2.90
2023-03-07T09:40:48.331Z,3.57
2023-03-07T09:43:33.956Z,2.67
2023-03-07T09:46:31.272Z,2.80
2023-03-07T09:49:18.130Z,3.00
2023-03-07T09:51:48.860Z,2.83
2023-03-07T09:54:22.364Z,2.20
2023-03-07T09:56:59.793Z,2.60
2023-03-07T09:59:43.663Z,2.83
2023-03-07T10:02:28.848Z,2.30
2023-03-07T10:05:20.744Z,2.77
2023-03-07T10:07:47.531Z,2.13
2023-03-07T10:10:32.081Z,2.47
2023-03-07T10:13:19.995Z,2.37
2023-03-07T10:16:27.219Z,2.13
2023-03-07T10:19:31.103Z,2.40
2023-03-07T10:22:13.508Z,2.60
2023-03-07T10:24:52.973Z,2.73
2023-03-07T10:27:25.939Z,2.73
2023-03-07T10:29:55.106Z,2.80
2023-03-07T10:32:35.407Z,2.60
2023-03-07T10:35:15.118Z,2.83
2023-03-07T10:38:08.284Z,2.00
2023-03-07T10:40:55.303Z,2.10
2023-03-07T10:43:31.578Z,2.60
2023-03-07T10:46:23.596Z,1.83
2023-03-07T10:49:08.766Z,2.10
2023-03-07T10:52:12.315Z,2.17
2023-03-07T10:54:39.968Z,2.00
2023-03-07T10:57:06.629Z,2.13
2023-03-07T10:59:33.664Z,2.17
2023-03-07T11:02:02.278Z,2.23
2023-03-07T11:04:42.556Z,2.47
2023-03-07T11:07:28.171Z,2.17
2023-03-07T11:09:56.344Z,2.33
2023-03-07T11:12:24.538Z,2.13
2023-03-07T11:15:09.562Z,1.80
2023-03-07T11:17:45.066Z,2.30
2023-03-07T11:20:47.612Z,2.20
2023-03-07T11:23:17.175Z,2.20
2023-03-07T11:25:44.464Z,2.03
2023-03-07T11:28:30.965Z,2.00
2023-03-07T11:31:23.200Z,2.47
2023-03-07T11:34:11.522Z,2.23
2023-03-07T11:36:44.221Z,2.47
2023-03-07T11:39:37.669Z,1.73
2023-03-07T11:42:15.039Z,2.20
2023-03-07T11:44:57.452Z,2.10
2023-03-07T11:47:48.339Z,2.27
2023-03-07T11:50:35.812Z,2.80
2023-03-07T11:53:30.322Z,2.03
2023-03-07T11:56:16.152Z,2.30
2023-03-07T11:59:04.574Z,2.50
2023-03-07T12:02:06.853Z,1.90
2023-03-07T12:05:11.951Z,2.63
2023-03-07T12:08:07.879Z,2.00
2023-03-07T12:11:16.743Z,2.40
2023-03-07T12:14:11.015Z,2.67
2023-03-07T12:16:53.005Z,2.27
2023-03-07T12:19:43.307Z,2.20
2023-03-07T12:22:29.772Z,2.23
2023-03-07T12:25:02.470Z,2.10
2023-03-07T12:27:35.490Z,2.37
2023-03-07T12:30:20.449Z,2.43
2023-03-07T12:32:49.933Z,1.77
2023-03-07T12:35:25.391Z,2.13
2023-03-07T12:38:18.133Z,2.87
2023-03-07T12:40:54.273Z,1.80
2023-03-07T12:43:33.354Z,1.90
2023-03-07T12:46:21.754Z,2.50
2023-03-07T12:49:02.115Z,1.77
2023-03-07T12:51:37.139Z,2.27
2023-03-07T12:54:12.606Z,2.03
2023-03-07T12:57:02.636Z,2.10
2023-03-07T12:59:31.469Z,1.80
2023-03-07T13:01:58.731Z,3.30
2023-03-07T13:04:25.415Z,1.63
2023-03-07T13:06:55.480Z,1.80
2023-03-07T13:09:25.011Z,2.57
2023-03-07T13:12:16.583Z,1.93
2023-03-07T13:14:54.450Z,2.00
2023-03-07T13:17:42.021Z,1.83
2023-03-07T13:20:36.836Z,2.00
2023-03-07T13:23:23.042Z,2.57
2023-03-07T13:25:56.576Z,2.10
2023-03-07T13:28:40.814Z,1.80
2023-03-07T13:31:20.722Z,1.87
2023-03-07T13:33:48.114Z,1.60
2023-03-07T13:36:31.876Z,2.40
2023-03-07T13:38:58.506Z,2.90
2023-03-07T13:41:45.719Z,2.03
2023-03-07T13:44:30.588Z,1.80
2023-03-07T13:47:02.730Z,2.00
2023-03-07T13:49:41.245Z,1.97
2023-03-07T13:52:30.434Z,2.50
2023-03-07T13:54:59.692Z,2.63
2023-03-07T13:57:34.044Z,2.10
2023-03-07T14:00:02.632Z,1.93
2023-03-07T14:02:29.736Z,1.80
2023-03-07T14:04:58.378Z,2.50
2023-03-07T14:07:32.102Z,1.93
2023-03-07T14:10:22.720Z,1.63
2023-03-07T14:13:18.636Z,2.03
2023-03-07T14:16:12.074Z,1.67
2023-03-07T14:18:47.837Z,2.20
2023-03-07T14:21:38.543Z,1.93
2023-03-07T14:24:11.520Z,2.07
2023-03-07T14:26:53.281Z,2.00
2023-03-07T14:29:28.158Z,1.63
2023-03-07T14:31:57.235Z,1.50
2023-03-07T14:34:34.708Z,2.20
2023-03-07T14:37:06.172Z,2.50
2023-03-07T14:40:00.820Z,1.37
2023-03-07T14:42:42.653Z,2.27
2023-03-07T14:45:50.233Z,1.83
2023-03-07T14:48:43.908Z,2.10
2023-03-07T14:51:20.836Z,1.93
2023-03-07T14:53:49.336Z,1.60
2023-03-07T14:56:27.453Z,1.70
2023-03-07T14:59:01.791Z,2.53
2023-03-07T15:01:40.591Z,2.50
2023-03-07T15:04:24.810Z,1.70
2023-03-07T15:07:04.741Z,2.33
2023-03-07T15:09:32.584Z,2.37
2023-03-07T15:11:59.132Z,2.13
2023-03-07T15:14:48.438Z,1.57
2023-03-07T15:17:26.369Z,1.23
2023-03-07T15:20:07.834Z,2.17
2023-03-07T15:22:40.692Z,2.13
2023-03-07T15:25:18.561Z,1.87
2023-03-07T15:27:45.398Z,1.87
2023-03-07T15:30:28.861Z,3.27
2023-03-07T15:33:20.437Z,2.30
2023-03-07T15:36:07.700Z,2.23
2023-03-07T15:38:35.370Z,1.53
2023-03-07T15:41:01.908Z,2.03
2023-03-07T15:43:34.999Z,2.70
2023-03-07T15:46:03.417Z,2.40
2023-03-07T15:48:50.488Z,2.10
2023-03-07T15:51:22.939Z,2.37
2023-03-07T15:54:03.574Z,2.07
2023-03-07T15:56:38.010Z,1.97
2023-03-07T15:59:16.225Z,2.10
2023-03-07T16:01:43.046Z,2.30
2023-03-07T16:04:39.826Z,1.90
2023-03-07T16:07:16.189Z,2.80
2023-03-07T16:09:42.801Z,2.80
2023-03-07T16:12:14.933Z,2.73
2023-03-07T16:14:42.210Z,2.10
2023-03-07T16:17:30.567Z,2.63
2023-03-07T16:19:57.776Z,1.30
2023-03-07T16:22:24.627Z,0.77
2023-03-07T16:24:51.305Z,0.43
2023-03-07T16:27:23.322Z,0.90
2023-03-07T16:29:50.658Z,0.90
2023-03-07T16:32:19.276Z,0.27
2023-03-07T16:34:46.458Z,0.40
2023-03-07T16:37:13.508Z,0.40
2023-03-07T16:39:41.206Z,0.40
2023-03-07T16:42:18.527Z,0.50
2023-03-07T16:44:45.388Z,0.50
2023-03-07T16:47:18.074Z,0.53
2023-03-07T16:49:46.895Z,0.70
2023-03-07T16:52:14.203Z,0.50
2023-03-07T16:54:41.184Z,0.40
2023-03-07T16:57:17.123Z,0.30
2023-03-07T16:59:47.132Z,0.33
2023-03-07T17:02:17.246Z,0.50
2023-03-07T17:04:44.624Z,0.30
2023-03-07T17:07:19.150Z,0.30
2023-03-07T17:09:45.948Z,0.73
2023-03-07T17:12:12.894Z,0.60
2023-03-07T17:14:39.815Z,0.43
2023-03-07T17:17:07.061Z,0.80
2023-03-07T17:19:34.673Z,0.60
2023-03-07T17:22:02.194Z,0.50
2023-03-07T17:24:29.564Z,1.23
2023-03-07T17:27:00.286Z,0.97
2023-03-07T17:29:50.155Z,0.73
2023-03-07T17:32:17.414Z,0.37
2023-03-07T17:34:44.417Z,0.63
2023-03-07T17:37:11.963Z,0.40
2023-03-07T17:39:39.434Z,0.97
2023-03-07T17:42:06.604Z,0.43
2023-03-07T17:44:33.258Z,0.67
2023-03-07T17:47:00.133Z,1.63
2023-03-07T17:49:32.859Z,1.30
2023-03-07T17:51:59.486Z,0.90
2023-03-07T17:54:26.044Z,0.77
2023-03-07T17:56:52.654Z,0.50
2023-03-07T17:59:19.236Z,0.73
2023-03-07T18:01:45.944Z,0.63
2023-03-07T18:04:12.569Z,0.87
2023-03-07T18:06:41.005Z,17.97
2023-03-07T18:09:08.529Z,1.00
2023-03-07T18:11:35.555Z,0.83
2023-03-07T18:14:02.460Z,1.10
2023-03-07T18:16:29.292Z,0.90
2023-03-07T18:19:00.241Z,0.90
2023-03-07T18:21:29.903Z,0.90
2023-03-07T18:23:57.365Z,0.90
2023-03-07T18:26:24.079Z,1.10
2023-03-07T18:28:53.351Z,1.23
2023-03-07T18:31:25.607Z,1.43
2023-03-07T18:33:53.234Z,0.90
2023-03-07T18:36:21.904Z,1.57
2023-03-07T18:38:49.250Z,1.57
2023-03-07T18:41:19.365Z,1.37
2023-03-07T18:43:46.403Z,1.27
2023-03-07T18:46:15.742Z,1.40
2023-03-07T18:48:42.915Z,1.43
2023-03-07T18:51:12.379Z,1.80
2023-03-07T18:53:39.783Z,0.93
2023-03-07T18:56:11.977Z,1.30
2023-03-07T18:58:39.660Z,1.50
2023-03-07T19:01:34.043Z,1.40
2023-03-07T19:04:03.536Z,1.13
2023-03-07T19:06:39.816Z,1.70
2023-03-07T19:09:17.908Z,1.30
2023-03-07T19:11:45.236Z,1.27
2023-03-07T19:14:12.532Z,0.87
2023-03-07T19:16:39.406Z,1.10
2023-03-07T19:19:06.094Z,1.33
2023-03-07T19:21:32.750Z,1.83
2023-03-07T19:24:01.733Z,1.17
2023-03-07T19:26:28.679Z,1.03
2023-03-07T19:28:56.631Z,1.27
2023-03-07T19:31:26.988Z,1.03
2023-03-07T19:33:54.217Z,1.50
2023-03-07T19:36:27.029Z,1.03
2023-03-07T19:38:55.625Z,2.20
2023-03-07T19:41:25.011Z,1.70
2023-03-07T19:43:52.156Z,1.20
2023-03-07T19:46:20.503Z,1.23
2023-03-07T19:48:47.973Z,1.30
2023-03-07T19:51:17.372Z,1.10
2023-03-07T19:53:45.374Z,1.37
2023-03-07T19:56:15.414Z,1.50
2023-03-07T19:58:42.004Z,1.40
2023-03-07T20:01:10.515Z,1.23
2023-03-07T20:03:37.345Z,1.30
2023-03-07T20:06:05.392Z,1.00
2023-03-07T20:08:33.686Z,1.60
2023-03-07T20:11:10.783Z,4.27
2023-03-07T20:13:37.648Z,2.13
2023-03-07T20:16:04.672Z,1.60
2023-03-07T20:18:31.282Z,1.37
2023-03-07T20:21:02.899Z,0.50
2023-03-07T20:23:29.620Z,0.80
2023-03-07T20:26:12.197Z,0.60
2023-03-07T20:28:39.288Z,0.90
2023-03-07T20:31:10.641Z,0.60
2023-03-07T20:33:39.257Z,0.67
2023-03-07T20:36:09.814Z,0.80
2023-03-07T20:38:37.613Z,0.67
2023-03-07T20:41:06.775Z,1.07
2023-03-07T20:43:34.061Z,0.80
2023-03-07T20:46:05.858Z,0.87
2023-03-07T20:48:32.865Z,1.00
2023-03-07T20:51:18.332Z,1.20
2023-03-07T20:53:46.317Z,0.80
2023-03-07T20:56:12.986Z,0.80
2023-03-07T20:58:39.544Z,1.10
2023-03-07T21:01:06.310Z,0.80
2023-03-07T21:03:33.149Z,0.97
2023-03-07T21:06:01.932Z,1.20
2023-03-07T21:08:34.082Z,0.63
2023-03-07T21:11:18.467Z,1.30
2023-03-07T21:13:47.639Z,0.70
2023-03-07T21:16:20.409Z,1.10
2023-03-07T21:18:47.614Z,0.70
2023-03-07T21:21:19.528Z,1.07
2023-03-07T21:23:46.645Z,1.33
2023-03-07T21:26:22.265Z,1.90
2023-03-07T21:28:50.722Z,0.97
2023-03-07T21:31:22.678Z,1.00
2023-03-07T21:33:54.452Z,1.40
2023-03-07T21:36:22.256Z,1.50
2023-03-07T21:38:49.164Z,1.13
2023-03-07T21:41:17.073Z,1.63
2023-03-07T21:43:43.745Z,1.40
2023-03-07T21:46:12.667Z,1.40
2023-03-07T21:48:39.735Z,1.20
2023-03-07T21:51:06.816Z,1.47
2023-03-07T21:53:34.339Z,2.13
2023-03-07T21:56:03.331Z,1.80
2023-03-07T21:58:31.049Z,1.70
2023-03-07T22:00:58.151Z,1.03
2023-03-07T22:03:26.752Z,1.57
2023-03-07T22:05:54.872Z,1.33
2023-03-07T22:08:22.938Z,1.10
2023-03-07T22:11:00.538Z,1.53
2023-03-07T22:13:28.434Z,0.87
2023-03-07T22:15:59.409Z,1.43
2023-03-07T22:18:27.460Z,0.83
2023-03-07T22:20:55.161Z,0.80
2023-03-07T22:23:26.632Z,1.43
2023-03-07T22:25:53.569Z,0.83
2023-03-07T22:28:20.477Z,0.87
2023-03-07T22:30:47.581Z,1.30
2023-03-07T22:33:14.110Z,1.13
2023-03-07T22:35:41.180Z,1.10
2023-03-07T22:38:07.825Z,0.60
2023-03-07T22:40:34.449Z,0.93
2023-03-07T22:43:01.027Z,0.80
2023-03-07T22:45:27.576Z,0.83
2023-03-07T22:47:54.296Z,1.73
2023-03-07T22:50:21.159Z,0.80
2023-03-07T22:52:48.297Z,0.67
2023-03-07T22:55:15.049Z,0.70
2023-03-07T22:57:41.754Z,0.50
2023-03-07T23:00:09.229Z,0.40
2023-03-07T23:02:35.805Z,0.80
2023-03-07T23:05:02.401Z,0.80
2023-03-07T23:07:29.098Z,0.93
2023-03-07T23:09:55.717Z,0.90
2023-03-07T23:12:22.417Z,0.60
2023-03-07T23:14:49.057Z,0.93
2023-03-07T23:17:15.689Z,1.23
2023-03-07T23:19:42.385Z,0.70
2023-03-07T23:22:09.030Z,0.80
2023-03-07T23:24:36.323Z,1.00
2023-03-07T23:27:03.034Z,0.87
2023-03-07T23:29:29.613Z,0.53
2023-03-07T23:31:56.271Z,0.50
2023-03-07T23:34:22.821Z,0.43
2023-03-07T23:36:49.528Z,0.73
2023-03-07T23:39:17.600Z,0.63
2023-03-07T23:41:44.255Z,0.60
2023-03-07T23:44:11.653Z,0.43
2023-03-07T23:46:38.853Z,0.60
2023-03-07T23:49:05.715Z,0.50
2023-03-07T23:51:32.373Z,0.50
2023-03-07T23:53:59.096Z,0.60
2023-03-07T23:56:25.835Z,0.30
2023-03-07T23:58:52.589Z,0.40
